sensor_id;sensor_type;location;lat;lon;timestamp;P1;durP1;ratioP1;P2;durP2;ratioP2
62153;SDS011;48140;45.486;9.226;2022-07-17T00:02:06;7.60;;;3.85;;
62153;SDS011;48140;45.486;9.226;2022-07-17T00:04:31;6.00;;;3.70;;
62153;SDS011;48140;45.486;9.226;2022-07-17T00:06:57;7.00;;;4.43;;
62153;SDS011;48140;45.486;9.226;2022-07-17T00:09:23;7.45;;;4.70;;
62153;SDS011;48140;45.486;9.226;2022-07-17T00:11:48;6.18;;;4.05;;
62153;SDS011;48140;45.486;9.226;2022-07-17T00:14:14;5.97;;;4.25;;
62153;SDS011;48140;45.486;9.226;2022-07-17T00:16:39;11.38;;;4.60;;
62153;SDS011;48140;45.486;9.226;2022-07-17T00:19:05;6.78;;;4.35;;
62153;SDS011;48140;45.486;9.226;2022-07-17T00:21:32;6.53;;;4.40;;
62153;SDS011;48140;45.486;9.226;2022-07-17T00:23:57;12.55;;;5.53;;
62153;SDS011;48140;45.486;9.226;2022-07-17T00:26:23;6.60;;;4.90;;
62153;SDS011;48140;45.486;9.226;2022-07-17T00:28:49;6.57;;;4.63;;
62153;SDS011;48140;45.486;9.226;2022-07-17T00:31:15;9.80;;;4.88;;
62153;SDS011;48140;45.486;9.226;2022-07-17T00:33:40;6.90;;;4.38;;
62153;SDS011;48140;45.486;9.226;2022-07-17T00:36:06;10.95;;;5.65;;
62153;SDS011;48140;45.486;9.226;2022-07-17T00:38:32;7.63;;;5.38;;
62153;SDS011;48140;45.486;9.226;2022-07-17T00:40:58;9.25;;;5.38;;
62153;SDS011;48140;45.486;9.226;2022-07-17T00:43:24;10.23;;;4.88;;
62153;SDS011;48140;45.486;9.226;2022-07-17T00:45:54;6.97;;;4.72;;
62153;SDS011;48140;45.486;9.226;2022-07-17T00:48:29;6.68;;;4.93;;
62153;SDS011;48140;45.486;9.226;2022-07-17T00:50:55;8.75;;;4.40;;
62153;SDS011;48140;45.486;9.226;2022-07-17T00:53:21;8.70;;;5.18;;
62153;SDS011;48140;45.486;9.226;2022-07-17T00:55:48;11.18;;;4.70;;
62153;SDS011;48140;45.486;9.226;2022-07-17T00:58:20;7.43;;;4.97;;
62153;SDS011;48140;45.486;9.226;2022-07-17T01:00:48;7.70;;;5.03;;
62153;SDS011;48140;45.486;9.226;2022-07-17T01:03:16;6.65;;;4.10;;
62153;SDS011;48140;45.486;9.226;2022-07-17T01:05:43;7.15;;;4.10;;
62153;SDS011;48140;45.486;9.226;2022-07-17T01:08:09;6.25;;;4.07;;
62153;SDS011;48140;45.486;9.226;2022-07-17T01:10:35;8.77;;;4.20;;
62153;SDS011;48140;45.486;9.226;2022-07-17T01:13:00;5.15;;;4.00;;
62153;SDS011;48140;45.486;9.226;2022-07-17T01:15:26;7.88;;;4.05;;
62153;SDS011;48140;45.486;9.226;2022-07-17T01:17:53;6.75;;;4.13;;
62153;SDS011;48140;45.486;9.226;2022-07-17T01:20:19;5.25;;;3.33;;
62153;SDS011;48140;45.486;9.226;2022-07-17T01:22:46;7.93;;;3.90;;
62153;SDS011;48140;45.486;9.226;2022-07-17T01:25:14;5.72;;;4.07;;
62153;SDS011;48140;45.486;9.226;2022-07-17T01:27:40;6.50;;;3.70;;
62153;SDS011;48140;45.486;9.226;2022-07-17T01:30:06;5.47;;;3.55;;
62153;SDS011;48140;45.486;9.226;2022-07-17T01:32:33;8.18;;;3.72;;
62153;SDS011;48140;45.486;9.226;2022-07-17T01:35:00;6.28;;;3.70;;
62153;SDS011;48140;45.486;9.226;2022-07-17T01:37:27;6.72;;;3.85;;
62153;SDS011;48140;45.486;9.226;2022-07-17T01:39:53;6.15;;;4.10;;
62153;SDS011;48140;45.486;9.226;2022-07-17T01:42:19;6.60;;;3.55;;
62153;SDS011;48140;45.486;9.226;2022-07-17T01:44:49;7.88;;;3.60;;
62153;SDS011;48140;45.486;9.226;2022-07-17T01:47:15;5.78;;;3.88;;
62153;SDS011;48140;45.486;9.226;2022-07-17T01:49:45;5.05;;;3.60;;
62153;SDS011;48140;45.486;9.226;2022-07-17T01:52:12;6.07;;;3.75;;
62153;SDS011;48140;45.486;9.226;2022-07-17T01:54:38;4.88;;;3.47;;
62153;SDS011;48140;45.486;9.226;2022-07-17T01:57:04;9.40;;;3.60;;
62153;SDS011;48140;45.486;9.226;2022-07-17T01:59:30;5.13;;;3.00;;
62153;SDS011;48140;45.486;9.226;2022-07-17T02:01:55;4.43;;;3.10;;
62153;SDS011;48140;45.486;9.226;2022-07-17T02:04:21;4.63;;;3.10;;
62153;SDS011;48140;45.486;9.226;2022-07-17T02:06:47;4.45;;;3.15;;
62153;SDS011;48140;45.486;9.226;2022-07-17T02:09:12;6.93;;;3.17;;
62153;SDS011;48140;45.486;9.226;2022-07-17T02:11:38;7.07;;;3.40;;
62153;SDS011;48140;45.486;9.226;2022-07-17T02:14:03;5.05;;;3.05;;
62153;SDS011;48140;45.486;9.226;2022-07-17T02:16:29;6.57;;;2.95;;
62153;SDS011;48140;45.486;9.226;2022-07-17T02:18:55;5.63;;;3.00;;
62153;SDS011;48140;45.486;9.226;2022-07-17T02:21:20;4.43;;;2.83;;
62153;SDS011;48140;45.486;9.226;2022-07-17T02:23:46;6.65;;;3.25;;
62153;SDS011;48140;45.486;9.226;2022-07-17T02:26:11;4.75;;;2.97;;
62153;SDS011;48140;45.486;9.226;2022-07-17T02:28:37;4.38;;;2.78;;
62153;SDS011;48140;45.486;9.226;2022-07-17T02:31:03;4.53;;;2.97;;
62153;SDS011;48140;45.486;9.226;2022-07-17T02:33:28;4.32;;;2.70;;
62153;SDS011;48140;45.486;9.226;2022-07-17T02:35:54;5.18;;;2.70;;
62153;SDS011;48140;45.486;9.226;2022-07-17T02:38:20;6.00;;;2.78;;
62153;SDS011;48140;45.486;9.226;2022-07-17T02:40:45;6.75;;;2.70;;
62153;SDS011;48140;45.486;9.226;2022-07-17T02:43:11;5.28;;;2.83;;
62153;SDS011;48140;45.486;9.226;2022-07-17T02:45:38;4.07;;;2.78;;
62153;SDS011;48140;45.486;9.226;2022-07-17T02:48:03;4.80;;;2.80;;
62153;SDS011;48140;45.486;9.226;2022-07-17T02:50:29;7.75;;;3.72;;
62153;SDS011;48140;45.486;9.226;2022-07-17T02:52:55;9.20;;;2.80;;
62153;SDS011;48140;45.486;9.226;2022-07-17T02:55:20;4.28;;;2.70;;
62153;SDS011;48140;45.486;9.226;2022-07-17T02:57:46;3.78;;;2.65;;
62153;SDS011;48140;45.486;9.226;2022-07-17T03:00:13;7.03;;;3.10;;
62153;SDS011;48140;45.486;9.226;2022-07-17T03:02:41;3.70;;;2.60;;
62153;SDS011;48140;45.486;9.226;2022-07-17T03:05:07;4.30;;;2.88;;
62153;SDS011;48140;45.486;9.226;2022-07-17T03:07:33;5.05;;;3.20;;
62153;SDS011;48140;45.486;9.226;2022-07-17T03:09:59;6.15;;;2.75;;
62153;SDS011;48140;45.486;9.226;2022-07-17T03:12:24;5.43;;;2.80;;
62153;SDS011;48140;45.486;9.226;2022-07-17T03:14:50;4.43;;;2.38;;
62153;SDS011;48140;45.486;9.226;2022-07-17T03:17:16;5.18;;;2.67;;
62153;SDS011;48140;45.486;9.226;2022-07-17T03:19:41;5.72;;;2.65;;
62153;SDS011;48140;45.486;9.226;2022-07-17T03:22:07;4.60;;;2.70;;
62153;SDS011;48140;45.486;9.226;2022-07-17T03:24:32;4.07;;;2.40;;
62153;SDS011;48140;45.486;9.226;2022-07-17T03:26:58;5.65;;;2.40;;
62153;SDS011;48140;45.486;9.226;2022-07-17T03:29:24;4.43;;;2.83;;
62153;SDS011;48140;45.486;9.226;2022-07-17T03:31:49;3.72;;;2.50;;
62153;SDS011;48140;45.486;9.226;2022-07-17T03:34:15;3.63;;;2.50;;
62153;SDS011;48140;45.486;9.226;2022-07-17T03:36:41;6.72;;;2.63;;
62153;SDS011;48140;45.486;9.226;2022-07-17T03:39:07;6.13;;;2.90;;
62153;SDS011;48140;45.486;9.226;2022-07-17T03:41:33;6.13;;;2.55;;
62153;SDS011;48140;45.486;9.226;2022-07-17T03:43:58;6.13;;;2.50;;
62153;SDS011;48140;45.486;9.226;2022-07-17T03:46:24;5.25;;;2.35;;
62153;SDS011;48140;45.486;9.226;2022-07-17T03:48:50;3.30;;;2.45;;
62153;SDS011;48140;45.486;9.226;2022-07-17T03:51:16;3.95;;;2.58;;
62153;SDS011;48140;45.486;9.226;2022-07-17T03:53:42;4.65;;;2.80;;
62153;SDS011;48140;45.486;9.226;2022-07-17T03:56:07;6.55;;;2.40;;
62153;SDS011;48140;45.486;9.226;2022-07-17T03:58:33;4.70;;;2.40;;
62153;SDS011;48140;45.486;9.226;2022-07-17T04:00:59;6.13;;;2.40;;
62153;SDS011;48140;45.486;9.226;2022-07-17T04:03:25;5.10;;;2.88;;
62153;SDS011;48140;45.486;9.226;2022-07-17T04:05:51;4.53;;;2.90;;
62153;SDS011;48140;45.486;9.226;2022-07-17T04:08:17;4.80;;;2.53;;
62153;SDS011;48140;45.486;9.226;2022-07-17T04:10:43;3.20;;;2.30;;
62153;SDS011;48140;45.486;9.226;2022-07-17T04:13:09;3.30;;;2.40;;
62153;SDS011;48140;45.486;9.226;2022-07-17T04:15:35;6.60;;;2.65;;
62153;SDS011;48140;45.486;9.226;2022-07-17T04:18:14;3.90;;;2.33;;
62153;SDS011;48140;45.486;9.226;2022-07-17T04:20:50;4.97;;;2.20;;
62153;SDS011;48140;45.486;9.226;2022-07-17T04:23:16;4.20;;;2.40;;
62153;SDS011;48140;45.486;9.226;2022-07-17T04:25:42;4.88;;;2.20;;
62153;SDS011;48140;45.486;9.226;2022-07-17T04:28:08;3.92;;;2.60;;
62153;SDS011;48140;45.486;9.226;2022-07-17T04:30:34;4.93;;;2.33;;
62153;SDS011;48140;45.486;9.226;2022-07-17T04:33:00;4.70;;;2.40;;
62153;SDS011;48140;45.486;9.226;2022-07-17T04:35:27;3.10;;;2.25;;
62153;SDS011;48140;45.486;9.226;2022-07-17T04:37:53;4.53;;;2.55;;
62153;SDS011;48140;45.486;9.226;2022-07-17T04:40:19;3.97;;;2.30;;
62153;SDS011;48140;45.486;9.226;2022-07-17T04:42:45;3.90;;;2.63;;
62153;SDS011;48140;45.486;9.226;2022-07-17T04:45:11;5.75;;;2.70;;
62153;SDS011;48140;45.486;9.226;2022-07-17T04:47:38;3.17;;;2.33;;
62153;SDS011;48140;45.486;9.226;2022-07-17T04:50:04;5.82;;;2.67;;
62153;SDS011;48140;45.486;9.226;2022-07-17T04:52:30;6.05;;;2.65;;
62153;SDS011;48140;45.486;9.226;2022-07-17T04:54:55;6.32;;;2.65;;
62153;SDS011;48140;45.486;9.226;2022-07-17T04:57:21;4.55;;;2.80;;
62153;SDS011;48140;45.486;9.226;2022-07-17T04:59:46;3.40;;;2.60;;
62153;SDS011;48140;45.486;9.226;2022-07-17T05:02:12;4.70;;;3.08;;
62153;SDS011;48140;45.486;9.226;2022-07-17T05:04:38;5.60;;;2.95;;
62153;SDS011;48140;45.486;9.226;2022-07-17T05:07:03;4.68;;;3.05;;
62153;SDS011;48140;45.486;9.226;2022-07-17T05:09:29;4.53;;;3.10;;
62153;SDS011;48140;45.486;9.226;2022-07-17T05:11:55;4.65;;;3.05;;
62153;SDS011;48140;45.486;9.226;2022-07-17T05:14:20;6.40;;;3.63;;
62153;SDS011;48140;45.486;9.226;2022-07-17T05:16:46;6.40;;;3.30;;
62153;SDS011;48140;45.486;9.226;2022-07-17T05:19:11;6.22;;;4.85;;
62153;SDS011;48140;45.486;9.226;2022-07-17T05:21:38;4.80;;;3.13;;
62153;SDS011;48140;45.486;9.226;2022-07-17T05:24:03;5.85;;;3.78;;
62153;SDS011;48140;45.486;9.226;2022-07-17T05:26:29;10.43;;;4.05;;
62153;SDS011;48140;45.486;9.226;2022-07-17T05:28:55;9.35;;;3.97;;
62153;SDS011;48140;45.486;9.226;2022-07-17T05:31:21;5.57;;;3.83;;
62153;SDS011;48140;45.486;9.226;2022-07-17T05:33:47;8.18;;;3.50;;
62153;SDS011;48140;45.486;9.226;2022-07-17T05:36:12;8.55;;;3.80;;
62153;SDS011;48140;45.486;9.226;2022-07-17T05:38:38;5.70;;;3.60;;
62153;SDS011;48140;45.486;9.226;2022-07-17T05:41:04;6.72;;;4.28;;
62153;SDS011;48140;45.486;9.226;2022-07-17T05:43:30;5.45;;;4.00;;
62153;SDS011;48140;45.486;9.226;2022-07-17T05:45:56;6.68;;;3.45;;
62153;SDS011;48140;45.486;9.226;2022-07-17T05:48:22;5.40;;;3.95;;
62153;SDS011;48140;45.486;9.226;2022-07-17T05:50:48;5.95;;;4.20;;
62153;SDS011;48140;45.486;9.226;2022-07-17T05:53:14;5.55;;;3.88;;
62153;SDS011;48140;45.486;9.226;2022-07-17T05:55:40;5.63;;;3.72;;
62153;SDS011;48140;45.486;9.226;2022-07-17T05:58:06;5.05;;;3.55;;
62153;SDS011;48140;45.486;9.226;2022-07-17T06:00:33;6.38;;;3.80;;
62153;SDS011;48140;45.486;9.226;2022-07-17T06:02:58;6.75;;;4.13;;
62153;SDS011;48140;45.486;9.226;2022-07-17T06:05:24;7.97;;;4.10;;
62153;SDS011;48140;45.486;9.226;2022-07-17T06:07:51;6.38;;;3.95;;
62153;SDS011;48140;45.486;9.226;2022-07-17T06:10:17;6.38;;;4.05;;
62153;SDS011;48140;45.486;9.226;2022-07-17T06:12:43;5.10;;;3.83;;
62153;SDS011;48140;45.486;9.226;2022-07-17T06:15:09;6.78;;;3.90;;
62153;SDS011;48140;45.486;9.226;2022-07-17T06:17:35;4.93;;;3.65;;
62153;SDS011;48140;45.486;9.226;2022-07-17T06:20:00;5.40;;;3.97;;
62153;SDS011;48140;45.486;9.226;2022-07-17T06:22:26;8.02;;;3.90;;
62153;SDS011;48140;45.486;9.226;2022-07-17T06:24:52;6.28;;;3.70;;
62153;SDS011;48140;45.486;9.226;2022-07-17T06:27:18;7.70;;;3.72;;
62153;SDS011;48140;45.486;9.226;2022-07-17T06:29:43;6.07;;;3.85;;
62153;SDS011;48140;45.486;9.226;2022-07-17T06:32:09;6.45;;;3.65;;
62153;SDS011;48140;45.486;9.226;2022-07-17T06:34:35;6.28;;;3.55;;
62153;SDS011;48140;45.486;9.226;2022-07-17T06:37:01;7.93;;;3.67;;
62153;SDS011;48140;45.486;9.226;2022-07-17T06:39:28;6.22;;;3.55;;
62153;SDS011;48140;45.486;9.226;2022-07-17T06:41:54;7.30;;;3.70;;
62153;SDS011;48140;45.486;9.226;2022-07-17T06:44:19;8.75;;;3.75;;
62153;SDS011;48140;45.486;9.226;2022-07-17T06:46:45;5.65;;;3.28;;
62153;SDS011;48140;45.486;9.226;2022-07-17T06:49:10;7.20;;;3.72;;
62153;SDS011;48140;45.486;9.226;2022-07-17T06:51:36;6.65;;;3.60;;
62153;SDS011;48140;45.486;9.226;2022-07-17T06:54:02;6.68;;;3.53;;
62153;SDS011;48140;45.486;9.226;2022-07-17T06:56:28;5.95;;;3.47;;
62153;SDS011;48140;45.486;9.226;2022-07-17T06:58:53;8.23;;;3.60;;
62153;SDS011;48140;45.486;9.226;2022-07-17T07:01:19;5.82;;;3.58;;
62153;SDS011;48140;45.486;9.226;2022-07-17T07:03:45;7.10;;;3.50;;
62153;SDS011;48140;45.486;9.226;2022-07-17T07:06:11;5.53;;;3.53;;
62153;SDS011;48140;45.486;9.226;2022-07-17T07:08:36;8.73;;;3.85;;
62153;SDS011;48140;45.486;9.226;2022-07-17T07:11:02;5.50;;;3.17;;
62153;SDS011;48140;45.486;9.226;2022-07-17T07:13:28;6.30;;;3.00;;
62153;SDS011;48140;45.486;9.226;2022-07-17T07:15:53;8.38;;;3.70;;
62153;SDS011;48140;45.486;9.226;2022-07-17T07:18:20;5.55;;;3.65;;
62153;SDS011;48140;45.486;9.226;2022-07-17T07:20:46;5.20;;;3.10;;
62153;SDS011;48140;45.486;9.226;2022-07-17T07:23:13;6.75;;;3.40;;
62153;SDS011;48140;45.486;9.226;2022-07-17T07:25:39;6.95;;;3.83;;
62153;SDS011;48140;45.486;9.226;2022-07-17T07:28:05;5.60;;;3.25;;
62153;SDS011;48140;45.486;9.226;2022-07-17T07:30:31;6.07;;;3.20;;
62153;SDS011;48140;45.486;9.226;2022-07-17T07:32:57;5.18;;;3.00;;
62153;SDS011;48140;45.486;9.226;2022-07-17T07:35:23;4.13;;;2.80;;
62153;SDS011;48140;45.486;9.226;2022-07-17T07:37:49;6.45;;;3.30;;
62153;SDS011;48140;45.486;9.226;2022-07-17T07:40:14;5.18;;;3.78;;
62153;SDS011;48140;45.486;9.226;2022-07-17T07:42:40;7.18;;;3.17;;
62153;SDS011;48140;45.486;9.226;2022-07-17T07:45:06;5.95;;;2.90;;
62153;SDS011;48140;45.486;9.226;2022-07-17T07:47:39;5.45;;;3.10;;
62153;SDS011;48140;45.486;9.226;2022-07-17T07:50:09;11.52;;;3.30;;
62153;SDS011;48140;45.486;9.226;2022-07-17T07:52:35;5.88;;;3.08;;
62153;SDS011;48140;45.486;9.226;2022-07-17T07:55:01;5.43;;;3.10;;
62153;SDS011;48140;45.486;9.226;2022-07-17T07:57:28;6.35;;;2.78;;
62153;SDS011;48140;45.486;9.226;2022-07-17T07:59:54;5.65;;;2.53;;
62153;SDS011;48140;45.486;9.226;2022-07-17T08:02:19;5.40;;;3.08;;
62153;SDS011;48140;45.486;9.226;2022-07-17T08:04:45;3.72;;;2.53;;
62153;SDS011;48140;45.486;9.226;2022-07-17T08:07:11;7.55;;;2.70;;
62153;SDS011;48140;45.486;9.226;2022-07-17T08:09:36;5.47;;;3.15;;
62153;SDS011;48140;45.486;9.226;2022-07-17T08:12:02;5.75;;;2.70;;
62153;SDS011;48140;45.486;9.226;2022-07-17T08:14:28;5.50;;;2.72;;
62153;SDS011;48140;45.486;9.226;2022-07-17T08:16:54;4.07;;;2.65;;
62153;SDS011;48140;45.486;9.226;2022-07-17T08:19:19;3.60;;;2.35;;
62153;SDS011;48140;45.486;9.226;2022-07-17T08:21:45;4.68;;;2.65;;
62153;SDS011;48140;45.486;9.226;2022-07-17T08:24:10;4.50;;;2.63;;
62153;SDS011;48140;45.486;9.226;2022-07-17T08:26:36;3.33;;;2.33;;
62153;SDS011;48140;45.486;9.226;2022-07-17T08:29:02;7.18;;;2.53;;
62153;SDS011;48140;45.486;9.226;2022-07-17T08:31:28;4.00;;;2.45;;
62153;SDS011;48140;45.486;9.226;2022-07-17T08:33:53;8.93;;;2.50;;
62153;SDS011;48140;45.486;9.226;2022-07-17T08:36:19;3.15;;;2.10;;
62153;SDS011;48140;45.486;9.226;2022-07-17T08:38:45;5.10;;;2.67;;
62153;SDS011;48140;45.486;9.226;2022-07-17T08:41:10;3.35;;;2.40;;
62153;SDS011;48140;45.486;9.226;2022-07-17T08:43:41;20.33;;;2.80;;
62153;SDS011;48140;45.486;9.226;2022-07-17T08:46:09;5.47;;;2.70;;
62153;SDS011;48140;45.486;9.226;2022-07-17T08:48:36;5.15;;;2.58;;
62153;SDS011;48140;45.486;9.226;2022-07-17T08:51:07;6.10;;;2.40;;
62153;SDS011;48140;45.486;9.226;2022-07-17T08:53:33;7.15;;;2.70;;
62153;SDS011;48140;45.486;9.226;2022-07-17T08:55:59;3.70;;;2.40;;
62153;SDS011;48140;45.486;9.226;2022-07-17T08:58:25;6.55;;;2.47;;
62153;SDS011;48140;45.486;9.226;2022-07-17T09:00:51;5.20;;;2.60;;
62153;SDS011;48140;45.486;9.226;2022-07-17T09:03:17;4.00;;;2.40;;
62153;SDS011;48140;45.486;9.226;2022-07-17T09:05:43;4.00;;;2.58;;
62153;SDS011;48140;45.486;9.226;2022-07-17T09:08:15;9.77;;;2.85;;
62153;SDS011;48140;45.486;9.226;2022-07-17T09:10:45;4.40;;;2.50;;
62153;SDS011;48140;45.486;9.226;2022-07-17T09:13:15;3.42;;;2.33;;
62153;SDS011;48140;45.486;9.226;2022-07-17T09:15:41;4.25;;;2.30;;
62153;SDS011;48140;45.486;9.226;2022-07-17T09:18:07;7.43;;;2.95;;
62153;SDS011;48140;45.486;9.226;2022-07-17T09:20:33;3.75;;;2.20;;
62153;SDS011;48140;45.486;9.226;2022-07-17T09:22:59;5.55;;;2.35;;
62153;SDS011;48140;45.486;9.226;2022-07-17T09:25:31;5.28;;;2.42;;
62153;SDS011;48140;45.486;9.226;2022-07-17T09:28:02;4.55;;;2.65;;
62153;SDS011;48140;45.486;9.226;2022-07-17T09:30:30;3.40;;;2.20;;
62153;SDS011;48140;45.486;9.226;2022-07-17T09:32:56;5.38;;;2.83;;
62153;SDS011;48140;45.486;9.226;2022-07-17T09:35:22;6.18;;;2.60;;
62153;SDS011;48140;45.486;9.226;2022-07-17T09:37:51;3.88;;;2.42;;
62153;SDS011;48140;45.486;9.226;2022-07-17T09:40:17;6.65;;;2.75;;
62153;SDS011;48140;45.486;9.226;2022-07-17T09:43:03;4.05;;;2.38;;
62153;SDS011;48140;45.486;9.226;2022-07-17T09:45:29;5.93;;;2.60;;
62153;SDS011;48140;45.486;9.226;2022-07-17T09:47:57;5.85;;;2.50;;
62153;SDS011;48140;45.486;9.226;2022-07-17T09:50:24;6.53;;;2.42;;
62153;SDS011;48140;45.486;9.226;2022-07-17T09:52:52;4.28;;;2.63;;
62153;SDS011;48140;45.486;9.226;2022-07-17T09:55:20;4.03;;;2.67;;
62153;SDS011;48140;45.486;9.226;2022-07-17T09:57:51;4.35;;;2.55;;
62153;SDS011;48140;45.486;9.226;2022-07-17T10:00:19;4.45;;;2.60;;
62153;SDS011;48140;45.486;9.226;2022-07-17T10:02:47;4.75;;;2.60;;
62153;SDS011;48140;45.486;9.226;2022-07-17T10:05:14;4.40;;;2.83;;
62153;SDS011;48140;45.486;9.226;2022-07-17T10:07:41;4.28;;;2.45;;
62153;SDS011;48140;45.486;9.226;2022-07-17T10:10:08;6.40;;;2.75;;
62153;SDS011;48140;45.486;9.226;2022-07-17T10:12:38;3.42;;;2.33;;
62153;SDS011;48140;45.486;9.226;2022-07-17T10:15:06;3.75;;;2.60;;
62153;SDS011;48140;45.486;9.226;2022-07-17T10:17:33;5.93;;;2.70;;
62153;SDS011;48140;45.486;9.226;2022-07-17T10:19:59;4.80;;;2.60;;
62153;SDS011;48140;45.486;9.226;2022-07-17T10:22:25;10.35;;;2.88;;
62153;SDS011;48140;45.486;9.226;2022-07-17T10:24:57;7.70;;;2.83;;
62153;SDS011;48140;45.486;9.226;2022-07-17T10:27:30;4.35;;;2.67;;
62153;SDS011;48140;45.486;9.226;2022-07-17T10:30:03;6.68;;;2.75;;
62153;SDS011;48140;45.486;9.226;2022-07-17T10:32:31;3.67;;;2.60;;
62153;SDS011;48140;45.486;9.226;2022-07-17T10:34:59;3.63;;;2.50;;
62153;SDS011;48140;45.486;9.226;2022-07-17T10:40:03;10.35;;;2.83;;
62153;SDS011;48140;45.486;9.226;2022-07-17T10:45:13;4.57;;;3.10;;
62153;SDS011;48140;45.486;9.226;2022-07-17T10:47:45;4.00;;;2.60;;
62153;SDS011;48140;45.486;9.226;2022-07-17T10:50:11;4.80;;;2.83;;
62153;SDS011;48140;45.486;9.226;2022-07-17T10:52:38;4.50;;;2.78;;
62153;SDS011;48140;45.486;9.226;2022-07-17T10:55:04;6.97;;;2.75;;
62153;SDS011;48140;45.486;9.226;2022-07-17T10:57:41;4.70;;;2.70;;
62153;SDS011;48140;45.486;9.226;2022-07-17T11:00:07;5.30;;;2.92;;
62153;SDS011;48140;45.486;9.226;2022-07-17T11:02:33;6.20;;;2.90;;
62153;SDS011;48140;45.486;9.226;2022-07-17T11:05:09;4.72;;;2.80;;
62153;SDS011;48140;45.486;9.226;2022-07-17T11:07:35;5.80;;;2.95;;
62153;SDS011;48140;45.486;9.226;2022-07-17T11:10:01;4.82;;;2.60;;
62153;SDS011;48140;45.486;9.226;2022-07-17T11:12:31;3.97;;;2.67;;
62153;SDS011;48140;45.486;9.226;2022-07-17T11:15:01;3.80;;;2.90;;
62153;SDS011;48140;45.486;9.226;2022-07-17T11:17:28;5.63;;;2.95;;
62153;SDS011;48140;45.486;9.226;2022-07-17T11:19:53;4.50;;;3.03;;
62153;SDS011;48140;45.486;9.226;2022-07-17T11:22:22;4.60;;;2.90;;
62153;SDS011;48140;45.486;9.226;2022-07-17T11:24:52;5.65;;;2.80;;
62153;SDS011;48140;45.486;9.226;2022-07-17T11:27:28;8.35;;;2.80;;
62153;SDS011;48140;45.486;9.226;2022-07-17T11:29:55;4.50;;;2.78;;
62153;SDS011;48140;45.486;9.226;2022-07-17T11:32:23;5.72;;;2.72;;
62153;SDS011;48140;45.486;9.226;2022-07-17T11:34:50;5.65;;;2.90;;
62153;SDS011;48140;45.486;9.226;2022-07-17T11:37:16;5.40;;;2.90;;
62153;SDS011;48140;45.486;9.226;2022-07-17T11:39:42;5.13;;;2.50;;
62153;SDS011;48140;45.486;9.226;2022-07-17T11:42:15;6.10;;;2.80;;
62153;SDS011;48140;45.486;9.226;2022-07-17T11:44:46;10.10;;;3.10;;
62153;SDS011;48140;45.486;9.226;2022-07-17T11:47:19;9.27;;;2.85;;
62153;SDS011;48140;45.486;9.226;2022-07-17T11:49:49;4.40;;;2.80;;
62153;SDS011;48140;45.486;9.226;2022-07-17T11:52:16;6.70;;;2.78;;
62153;SDS011;48140;45.486;9.226;2022-07-17T11:54:47;7.30;;;2.80;;
62153;SDS011;48140;45.486;9.226;2022-07-17T11:57:15;5.35;;;2.83;;
62153;SDS011;48140;45.486;9.226;2022-07-17T11:59:42;3.97;;;2.70;;
62153;SDS011;48140;45.486;9.226;2022-07-17T12:02:13;5.45;;;2.55;;
62153;SDS011;48140;45.486;9.226;2022-07-17T12:04:54;5.85;;;2.80;;
62153;SDS011;48140;45.486;9.226;2022-07-17T12:07:21;5.38;;;2.60;;
62153;SDS011;48140;45.486;9.226;2022-07-17T12:09:48;5.63;;;3.10;;
62153;SDS011;48140;45.486;9.226;2022-07-17T12:12:20;8.95;;;2.90;;
62153;SDS011;48140;45.486;9.226;2022-07-17T12:14:49;3.33;;;2.40;;
62153;SDS011;48140;45.486;9.226;2022-07-17T12:17:18;5.63;;;2.58;;
62153;SDS011;48140;45.486;9.226;2022-07-17T12:19:44;3.78;;;2.60;;
62153;SDS011;48140;45.486;9.226;2022-07-17T12:22:10;3.30;;;2.40;;
62153;SDS011;48140;45.486;9.226;2022-07-17T12:24:43;3.55;;;2.42;;
62153;SDS011;48140;45.486;9.226;2022-07-17T12:27:10;4.32;;;2.65;;
62153;SDS011;48140;45.486;9.226;2022-07-17T12:29:38;8.60;;;2.70;;
62153;SDS011;48140;45.486;9.226;2022-07-17T12:32:06;5.63;;;2.60;;
62153;SDS011;48140;45.486;9.226;2022-07-17T12:34:40;4.82;;;2.80;;
62153;SDS011;48140;45.486;9.226;2022-07-17T12:37:12;3.88;;;2.45;;
62153;SDS011;48140;45.486;9.226;2022-07-17T12:39:39;3.67;;;2.78;;
62153;SDS011;48140;45.486;9.226;2022-07-17T12:42:05;7.82;;;2.58;;
62153;SDS011;48140;45.486;9.226;2022-07-17T12:44:32;3.40;;;2.47;;
62153;SDS011;48140;45.486;9.226;2022-07-17T12:46:58;5.88;;;2.25;;
62153;SDS011;48140;45.486;9.226;2022-07-17T12:49:24;4.57;;;2.58;;
62153;SDS011;48140;45.486;9.226;2022-07-17T12:51:50;7.20;;;2.38;;
62153;SDS011;48140;45.486;9.226;2022-07-17T12:54:16;5.22;;;2.60;;
62153;SDS011;48140;45.486;9.226;2022-07-17T12:56:42;3.30;;;2.40;;
62153;SDS011;48140;45.486;9.226;2022-07-17T12:59:08;3.05;;;2.30;;
62153;SDS011;48140;45.486;9.226;2022-07-17T13:01:34;5.43;;;2.70;;
62153;SDS011;48140;45.486;9.226;2022-07-17T13:04:00;4.40;;;2.80;;
62153;SDS011;48140;45.486;9.226;2022-07-17T13:06:25;4.15;;;2.55;;
62153;SDS011;48140;45.486;9.226;2022-07-17T13:08:51;4.30;;;2.80;;
62153;SDS011;48140;45.486;9.226;2022-07-17T13:11:18;3.25;;;2.35;;
62153;SDS011;48140;45.486;9.226;2022-07-17T13:13:44;4.97;;;2.50;;
62153;SDS011;48140;45.486;9.226;2022-07-17T13:16:11;4.47;;;2.60;;
62153;SDS011;48140;45.486;9.226;2022-07-17T13:18:37;3.55;;;2.40;;
62153;SDS011;48140;45.486;9.226;2022-07-17T13:21:04;2.78;;;2.17;;
62153;SDS011;48140;45.486;9.226;2022-07-17T13:23:31;5.07;;;2.38;;
62153;SDS011;48140;45.486;9.226;2022-07-17T13:25:59;4.05;;;2.65;;
62153;SDS011;48140;45.486;9.226;2022-07-17T13:28:25;3.30;;;2.33;;
62153;SDS011;48140;45.486;9.226;2022-07-17T13:30:50;5.95;;;3.05;;
62153;SDS011;48140;45.486;9.226;2022-07-17T13:33:16;3.80;;;2.28;;
62153;SDS011;48140;45.486;9.226;2022-07-17T13:35:42;6.32;;;2.80;;
62153;SDS011;48140;45.486;9.226;2022-07-17T13:38:08;4.78;;;2.88;;
62153;SDS011;48140;45.486;9.226;2022-07-17T13:40:34;3.88;;;2.60;;
62153;SDS011;48140;45.486;9.226;2022-07-17T13:43:00;5.28;;;2.45;;
62153;SDS011;48140;45.486;9.226;2022-07-17T13:45:26;5.68;;;2.65;;
62153;SDS011;48140;45.486;9.226;2022-07-17T13:47:52;3.45;;;2.70;;
62153;SDS011;48140;45.486;9.226;2022-07-17T13:50:19;3.80;;;2.50;;
62153;SDS011;48140;45.486;9.226;2022-07-17T13:52:46;4.85;;;2.58;;
62153;SDS011;48140;45.486;9.226;2022-07-17T13:55:11;3.72;;;2.55;;
62153;SDS011;48140;45.486;9.226;2022-07-17T13:57:38;6.53;;;2.83;;
62153;SDS011;48140;45.486;9.226;2022-07-17T14:00:04;3.88;;;2.50;;
62153;SDS011;48140;45.486;9.226;2022-07-17T14:02:30;4.70;;;2.67;;
62153;SDS011;48140;45.486;9.226;2022-07-17T14:04:56;4.95;;;2.80;;
62153;SDS011;48140;45.486;9.226;2022-07-17T14:07:22;6.50;;;2.70;;
62153;SDS011;48140;45.486;9.226;2022-07-17T14:09:47;4.95;;;2.30;;
62153;SDS011;48140;45.486;9.226;2022-07-17T14:12:13;8.10;;;2.58;;
62153;SDS011;48140;45.486;9.226;2022-07-17T14:14:38;4.55;;;2.35;;
62153;SDS011;48140;45.486;9.226;2022-07-17T14:17:04;3.58;;;2.70;;
62153;SDS011;48140;45.486;9.226;2022-07-17T14:19:30;4.18;;;2.80;;
62153;SDS011;48140;45.486;9.226;2022-07-17T14:21:55;4.03;;;2.45;;
62153;SDS011;48140;45.486;9.226;2022-07-17T14:24:21;7.10;;;2.58;;
62153;SDS011;48140;45.486;9.226;2022-07-17T14:26:47;3.45;;;2.55;;
62153;SDS011;48140;45.486;9.226;2022-07-17T14:29:13;4.78;;;2.72;;
62153;SDS011;48140;45.486;9.226;2022-07-17T14:31:39;6.45;;;2.80;;
62153;SDS011;48140;45.486;9.226;2022-07-17T14:34:05;4.53;;;2.83;;
62153;SDS011;48140;45.486;9.226;2022-07-17T14:36:31;3.92;;;2.53;;
62153;SDS011;48140;45.486;9.226;2022-07-17T14:38:56;7.55;;;2.70;;
62153;SDS011;48140;45.486;9.226;2022-07-17T14:41:22;4.97;;;2.83;;
62153;SDS011;48140;45.486;9.226;2022-07-17T14:43:48;5.07;;;2.80;;
62153;SDS011;48140;45.486;9.226;2022-07-17T14:46:14;4.55;;;2.50;;
62153;SDS011;48140;45.486;9.226;2022-07-17T14:48:39;2.72;;;2.28;;
62153;SDS011;48140;45.486;9.226;2022-07-17T14:51:05;4.13;;;2.50;;